createdAt,value
2022-10-10T00:01:44.197Z,28.25
2022-10-10T00:04:12.780Z,29.07
2022-10-10T00:06:41.385Z,29.82
2022-10-10T00:09:10.078Z,28.95
2022-10-10T00:11:38.715Z,29.35
2022-10-10T00:14:07.378Z,29.18
2022-10-10T00:16:36.074Z,29.77
2022-10-10T00:19:05.121Z,28.38
2022-10-10T00:21:33.697Z,29.67
2022-10-10T00:24:03.854Z,26.97
2022-10-10T00:26:32.460Z,26.95
2022-10-10T00:29:03.195Z,28.15
2022-10-10T00:31:31.880Z,26.68
2022-10-10T00:34:02.688Z,27.27
2022-10-10T00:36:31.415Z,27.20
2022-10-10T00:39:00.092Z,26.80
2022-10-10T00:41:29.551Z,28.15
2022-10-10T00:44:13.344Z,27.22
2022-10-10T00:46:42.834Z,26.50
2022-10-10T00:49:17.322Z,27.90
2022-10-10T00:51:48.424Z,27.45
2022-10-10T00:54:19.620Z,27.82
2022-10-10T00:56:54.188Z,27.40
2022-10-10T00:59:24.249Z,26.70
2022-10-10T01:01:54.655Z,28.00
2022-10-10T01:04:45.230Z,27.42
2022-10-10T01:07:23.308Z,26.50
2022-10-10T01:09:54.502Z,25.97
2022-10-10T01:12:31.893Z,26.07
2022-10-10T01:15:09.358Z,26.80
2022-10-10T01:17:57.148Z,28.73
2022-10-10T01:20:31.472Z,27.82
2022-10-10T01:23:06.858Z,28.17
2022-10-10T01:25:41.431Z,27.42
2022-10-10T01:28:45.092Z,28.65
2022-10-10T01:31:17.034Z,27.95
2022-10-10T01:33:57.732Z,28.70
2022-10-10T01:36:38.303Z,28.73
2022-10-10T01:39:29.574Z,28.73
2022-10-10T01:42:01.107Z,30.10
2022-10-10T01:44:30.050Z,31.48
2022-10-10T01:47:03.074Z,31.25
2022-10-10T01:49:35.007Z,30.48
2022-10-10T01:52:14.021Z,30.95
2022-10-10T01:55:00.699Z,30.30
2022-10-10T01:57:53.386Z,29.57
2022-10-10T02:00:22.580Z,30.92
2022-10-10T02:02:58.414Z,30.37
2022-10-10T02:05:52.565Z,30.35
2022-10-10T02:08:39.061Z,29.95
2022-10-10T02:11:16.980Z,31.33
2022-10-10T02:13:51.465Z,30.75
2022-10-10T02:16:29.041Z,30.15
2022-10-10T02:19:03.696Z,29.45
2022-10-10T02:21:36.332Z,30.55
2022-10-10T02:24:08.151Z,29.60
2022-10-10T02:26:41.126Z,29.37
2022-10-10T02:29:23.022Z,27.45
2022-10-10T02:32:00.641Z,27.73
2022-10-10T02:34:33.971Z,29.42
2022-10-10T02:37:08.238Z,29.85
2022-10-10T02:39:40.043Z,30.30
2022-10-10T02:42:11.365Z,29.77
2022-10-10T02:44:43.888Z,28.12
2022-10-10T02:47:15.612Z,27.27
2022-10-10T02:49:44.777Z,27.60
2022-10-10T02:52:17.515Z,27.90
2022-10-10T02:54:51.394Z,28.62
2022-10-10T02:57:29.426Z,29.63
2022-10-10T03:00:05.139Z,29.50
2022-10-10T03:02:41.245Z,28.35
2022-10-10T03:05:38.059Z,28.92
2022-10-10T03:07:53.344Z,29.57
2022-10-10T03:10:23.674Z,27.82
2022-10-10T03:16:26.644Z,28.85
2022-10-10T03:22:17.927Z,28.92
2022-10-10T03:24:35.857Z,28.40
2022-10-10T03:27:06.506Z,29.07
2022-10-10T03:29:38.004Z,30.17
2022-10-10T03:32:10.262Z,31.37
2022-10-10T03:34:37.256Z,30.60
2022-10-10T03:37:07.167Z,30.63
2022-10-10T03:39:37.379Z,31.48
2022-10-10T03:42:06.242Z,34.23
2022-10-10T03:44:37.273Z,33.80
2022-10-10T03:47:06.065Z,33.23
2022-10-10T03:49:34.818Z,34.13
2022-10-10T03:52:04.900Z,34.80
2022-10-10T03:54:33.667Z,34.03
2022-10-10T03:57:02.406Z,32.95
2022-10-10T03:59:32.633Z,34.50
2022-10-10T04:02:02.898Z,33.10
2022-10-10T04:04:31.533Z,35.13
2022-10-10T04:07:00.269Z,33.63
2022-10-10T04:09:28.951Z,33.83
2022-10-10T04:12:00.575Z,32.23
2022-10-10T04:14:35.766Z,31.85
2022-10-10T04:17:08.046Z,31.50
2022-10-10T04:26:15.168Z,31.67
2022-10-10T04:46:27.838Z,29.63
2022-10-10T04:49:00.248Z,29.45
2022-10-10T04:51:30.291Z,29.20
2022-10-10T04:53:59.113Z,28.12
2022-10-10T04:56:28.362Z,29.32
2022-10-10T04:58:57.160Z,29.75
2022-10-10T05:01:25.882Z,29.42
2022-10-10T05:03:55.951Z,29.30
2022-10-10T05:06:24.624Z,30.05
2022-10-10T05:09:01.518Z,27.98
2022-10-10T05:11:30.272Z,28.60
2022-10-10T05:13:58.988Z,28.60
2022-10-10T05:16:27.681Z,27.87
2022-10-10T05:18:57.902Z,29.20
2022-10-10T05:21:26.637Z,31.10
2022-10-10T05:23:56.731Z,30.15
2022-10-10T05:26:25.340Z,30.02
2022-10-10T05:28:54.616Z,31.82
2022-10-10T05:31:23.421Z,28.95
2022-10-10T05:33:53.571Z,30.02
2022-10-10T05:36:22.480Z,30.15
2022-10-10T05:38:51.243Z,29.90
2022-10-10T05:41:19.805Z,30.72
2022-10-10T05:43:48.802Z,32.85
2022-10-10T05:46:18.445Z,32.23
2022-10-10T05:48:47.017Z,32.53
2022-10-10T05:51:15.658Z,34.85
2022-10-10T05:53:44.428Z,32.85
2022-10-10T05:56:14.744Z,34.80
2022-10-10T05:58:43.699Z,35.38
2022-10-10T06:01:22.506Z,33.18
2022-10-10T06:03:52.858Z,32.53
2022-10-10T06:06:21.642Z,32.93
2022-10-10T06:08:53.160Z,31.30
2022-10-10T06:11:23.457Z,31.60
2022-10-10T06:13:53.796Z,30.45
2022-10-10T06:16:27.984Z,30.23
2022-10-10T06:18:59.485Z,29.42
2022-10-10T06:21:28.081Z,29.67
2022-10-10T06:23:57.265Z,27.45
2022-10-10T06:26:35.264Z,27.40
2022-10-10T06:29:05.400Z,27.90
2022-10-10T06:31:34.167Z,26.70
2022-10-10T06:34:02.881Z,28.60
2022-10-10T06:36:31.469Z,26.30
2022-10-10T06:39:01.681Z,27.27
2022-10-10T06:41:30.445Z,25.95
2022-10-10T06:44:02.070Z,27.75
2022-10-10T06:46:30.853Z,27.35
2022-10-10T06:49:02.817Z,27.48
2022-10-10T06:51:39.554Z,26.23
2022-10-10T06:54:08.404Z,27.37
2022-10-10T06:56:37.045Z,24.77
2022-10-10T06:59:05.776Z,25.95
2022-10-10T07:01:34.655Z,25.60
2022-10-10T07:04:12.240Z,24.95
2022-10-10T07:06:41.541Z,38.75
2022-10-10T07:09:21.056Z,58.52
2022-10-10T07:11:49.791Z,81.65
2022-10-10T07:14:18.509Z,30.60
2022-10-10T07:16:47.211Z,23.85
2022-10-10T07:19:15.960Z,32.25
2022-10-10T07:21:44.677Z,21.07
2022-10-10T07:24:13.309Z,19.02
2022-10-10T07:26:41.950Z,23.25
2022-10-10T07:29:10.656Z,94.65
2022-10-10T07:31:39.406Z,50.67
2022-10-10T07:34:08.067Z,26.97
2022-10-10T07:36:37.753Z,32.67
2022-10-10T07:39:06.409Z,18.30
2022-10-10T07:41:36.593Z,23.95
2022-10-10T07:44:05.366Z,16.60
2022-10-10T07:46:33.936Z,14.03
2022-10-10T07:49:02.587Z,14.95
2022-10-10T07:51:33.181Z,15.88
2022-10-10T07:54:02.254Z,15.88
2022-10-10T07:56:31.386Z,16.15
2022-10-10T07:59:00.938Z,13.93
2022-10-10T08:01:31.580Z,33.98
2022-10-10T08:04:01.815Z,30.37
2022-10-10T08:06:32.068Z,14.50
2022-10-10T08:09:00.911Z,15.58
2022-10-10T08:11:29.799Z,13.95
2022-10-10T08:13:58.531Z,23.12
2022-10-10T08:16:30.317Z,20.80
2022-10-10T08:18:59.160Z,17.10
2022-10-10T08:21:28.124Z,18.30
2022-10-10T08:23:57.373Z,16.60
2022-10-10T08:26:27.558Z,10.40
2022-10-10T08:28:56.323Z,11.35
2022-10-10T08:31:25.037Z,12.80
2022-10-10T08:33:55.676Z,16.82
2022-10-10T08:36:25.435Z,12.15
2022-10-10T08:38:58.031Z,11.83
2022-10-10T08:41:45.947Z,12.18
2022-10-10T08:44:26.059Z,11.90
2022-10-10T08:47:00.523Z,10.55
2022-10-10T08:49:37.887Z,10.30
2022-10-10T08:52:18.826Z,9.18
2022-10-10T08:54:49.602Z,9.85
2022-10-10T08:57:39.817Z,9.55
2022-10-10T09:00:11.207Z,12.05
2022-10-10T09:02:53.735Z,11.33
2022-10-10T09:05:16.052Z,9.75
2022-10-10T09:07:53.682Z,11.65
2022-10-10T09:10:25.204Z,10.53
2022-10-10T09:12:56.855Z,9.10
2022-10-10T09:15:28.519Z,15.60
2022-10-10T09:18:09.173Z,7.83
2022-10-10T09:20:59.048Z,8.58
2022-10-10T09:23:33.827Z,9.40
2022-10-10T09:26:11.336Z,8.38
2022-10-10T09:29:01.435Z,7.42
2022-10-10T09:31:49.409Z,8.10
2022-10-10T09:34:42.434Z,8.78
2022-10-10T09:37:42.394Z,7.50
2022-10-10T09:40:06.604Z,7.30
2022-10-10T09:42:40.616Z,6.87
2022-10-10T09:45:30.385Z,8.45
2022-10-10T09:47:59.078Z,7.90
2022-10-10T09:50:27.793Z,9.40
2022-10-10T09:52:59.176Z,7.03
2022-10-10T09:55:39.180Z,8.35
2022-10-10T09:58:16.875Z,7.20
2022-10-10T10:00:45.566Z,6.42
2022-10-10T10:03:22.804Z,7.87
2022-10-10T10:06:02.107Z,6.95
2022-10-10T10:08:33.546Z,6.30
2022-10-10T10:11:03.048Z,7.97
2022-10-10T10:13:37.013Z,7.17
2022-10-10T10:16:08.649Z,9.63
2022-10-10T10:18:43.137Z,6.03
2022-10-10T10:21:26.290Z,6.17
2022-10-10T10:24:03.267Z,7.37
2022-10-10T10:26:46.669Z,7.20
2022-10-10T10:29:32.966Z,6.10
2022-10-10T10:32:16.298Z,6.78
2022-10-10T10:35:20.848Z,5.53
2022-10-10T10:37:58.626Z,5.40
2022-10-10T10:40:33.130Z,7.50
2022-10-10T10:43:24.536Z,5.72
2022-10-10T10:46:08.289Z,6.40
2022-10-10T10:48:48.128Z,5.50
2022-10-10T10:51:45.836Z,5.92
2022-10-10T10:54:27.247Z,8.23
2022-10-10T11:00:25.680Z,5.58
2022-10-10T11:03:14.794Z,5.53
2022-10-10T11:05:40.913Z,5.33
2022-10-10T11:08:06.890Z,5.12
2022-10-10T11:10:47.429Z,5.83
2022-10-10T11:13:26.250Z,6.28
2022-10-10T11:16:07.197Z,5.35
2022-10-10T11:18:40.237Z,5.33
2022-10-10T11:21:14.454Z,5.28
2022-10-10T11:23:50.349Z,4.65
2022-10-10T11:26:52.743Z,5.75
2022-10-10T11:29:38.551Z,5.95
2022-10-10T11:32:16.964Z,5.03
2022-10-10T11:34:57.480Z,4.65
2022-10-10T11:37:32.004Z,6.45
2022-10-10T11:40:06.719Z,5.35
2022-10-10T11:42:38.412Z,5.58
2022-10-10T11:45:21.794Z,5.28
2022-10-10T11:47:59.496Z,5.60
2022-10-10T11:50:34.434Z,5.37
2022-10-10T11:53:27.620Z,5.50
2022-10-10T11:56:04.081Z,5.70
2022-10-10T11:58:51.054Z,5.97
2022-10-10T12:01:34.388Z,5.60
2022-10-10T12:04:06.298Z,5.12
2022-10-10T12:06:55.986Z,5.55
2022-10-10T12:09:31.771Z,5.67
2022-10-10T12:12:05.904Z,5.60
2022-10-10T12:14:36.715Z,5.75
2022-10-10T12:17:06.350Z,6.17
2022-10-10T12:19:40.759Z,5.50
2022-10-10T12:22:15.746Z,5.60
2022-10-10T12:25:29.042Z,5.30
2022-10-10T12:28:17.186Z,5.35
2022-10-10T12:31:00.474Z,5.47
2022-10-10T12:33:38.402Z,5.28
2022-10-10T12:36:23.959Z,6.37
2022-10-10T12:39:05.894Z,6.53
2022-10-10T12:41:58.162Z,6.12
2022-10-10T12:44:38.413Z,5.25
2022-10-10T12:47:20.584Z,5.62
2022-10-10T12:50:01.003Z,5.50
2022-10-10T12:52:40.719Z,5.45
2022-10-10T12:55:12.838Z,5.60
2022-10-10T12:57:46.620Z,5.22
2022-10-10T13:00:17.839Z,5.72
2022-10-10T13:02:49.492Z,5.55
2022-10-10T13:05:21.084Z,4.97
2022-10-10T13:07:51.714Z,5.17
2022-10-10T13:10:26.071Z,5.62
2022-10-10T13:13:03.297Z,33.10
2022-10-10T13:15:33.861Z,6.58
2022-10-10T13:18:02.529Z,5.97
2022-10-10T13:20:41.940Z,5.15
2022-10-10T13:23:14.160Z,5.22
2022-10-10T13:25:44.342Z,5.53
2022-10-10T13:28:29.204Z,5.53
2022-10-10T13:31:05.246Z,5.40
2022-10-10T13:33:40.828Z,5.35
2022-10-10T13:36:12.561Z,6.42
2022-10-10T13:38:46.060Z,5.50
2022-10-10T13:42:36.630Z,5.97
2022-10-10T13:44:07.695Z,5.37
2022-10-10T13:46:36.451Z,6.20
2022-10-10T13:49:08.224Z,6.28
2022-10-10T13:51:47.850Z,5.72
2022-10-10T13:54:44.436Z,5.65
2022-10-10T13:57:22.355Z,5.87
2022-10-10T14:00:08.870Z,5.85
2022-10-10T14:02:40.332Z,6.30
2022-10-10T14:05:11.960Z,6.50
2022-10-10T14:07:40.640Z,6.20
2022-10-10T14:10:11.515Z,5.58
2022-10-10T14:12:46.594Z,5.80
2022-10-10T14:15:47.063Z,5.90
2022-10-10T14:18:21.758Z,5.80
2022-10-10T14:24:16.119Z,6.00
2022-10-10T14:26:52.138Z,5.95
2022-10-10T14:29:23.771Z,6.45
2022-10-10T14:31:56.290Z,5.95
2022-10-10T14:34:25.002Z,6.30
2022-10-10T14:37:06.131Z,6.08
2022-10-10T14:39:36.516Z,6.40
2022-10-10T14:42:08.154Z,6.25
2022-10-10T14:44:39.338Z,7.42
2022-10-10T14:47:10.978Z,6.60
2022-10-10T14:49:39.629Z,6.45
2022-10-10T14:52:14.873Z,9.80
2022-10-10T14:54:43.964Z,6.10
2022-10-10T14:57:38.459Z,6.95
2022-10-10T15:00:09.358Z,9.50
2022-10-10T15:02:45.716Z,7.15
2022-10-10T15:05:17.388Z,8.18
2022-10-10T15:07:49.153Z,8.93
2022-10-10T15:10:33.743Z,6.60
2022-10-10T15:12:51.441Z,8.35
2022-10-10T15:15:21.568Z,6.40
2022-10-10T15:17:50.235Z,6.08
2022-10-10T15:20:20.647Z,6.10
2022-10-10T15:22:49.387Z,6.22
2022-10-10T15:25:18.318Z,5.95
2022-10-10T15:27:46.901Z,6.35
2022-10-10T15:30:15.562Z,8.58
2022-10-10T15:32:47.252Z,6.10
2022-10-10T15:35:23.798Z,6.40
2022-10-10T15:37:52.848Z,6.75
2022-10-10T15:40:29.683Z,5.83
2022-10-10T15:42:58.258Z,6.10
2022-10-10T15:45:54.371Z,6.75
2022-10-10T15:48:02.531Z,6.30
2022-10-10T15:50:45.948Z,6.75
2022-10-10T15:53:25.340Z,7.22
2022-10-10T15:55:55.054Z,7.17
2022-10-10T15:58:24.677Z,6.47
2022-10-10T16:01:05.664Z,7.80
2022-10-10T16:03:29.945Z,7.00
2022-10-10T16:06:00.329Z,6.60
2022-10-10T16:08:29.284Z,6.55
2022-10-10T16:11:00.006Z,6.60
2022-10-10T16:13:28.852Z,6.95
2022-10-10T16:16:06.389Z,11.18
2022-10-10T16:18:40.242Z,7.72
2022-10-10T16:21:11.263Z,7.65
2022-10-10T16:23:41.743Z,8.98
2022-10-10T16:32:59.920Z,8.88
2022-10-10T16:37:36.055Z,9.95
2022-10-10T16:41:35.590Z,9.63
2022-10-10T16:47:27.624Z,9.55
2022-10-10T17:03:12.223Z,11.85
2022-10-10T17:05:40.904Z,10.58
2022-10-10T17:34:18.340Z,10.23
2022-10-10T17:36:47.952Z,10.75
2022-10-10T17:39:16.574Z,12.40
2022-10-10T17:41:49.616Z,10.03
2022-10-10T17:44:18.187Z,11.35
2022-10-10T17:46:46.808Z,10.23
2022-10-10T17:49:20.726Z,9.85
2022-10-10T17:52:11.548Z,10.50
2022-10-10T17:54:37.655Z,9.60
2022-10-10T17:57:06.361Z,10.18
2022-10-10T17:59:35.984Z,10.03
2022-10-10T18:02:05.233Z,9.73
2022-10-10T18:04:33.851Z,11.48
2022-10-10T18:07:02.618Z,11.35
2022-10-10T18:09:37.065Z,10.43
2022-10-10T18:12:08.169Z,10.32
2022-10-10T18:14:40.424Z,10.00
2022-10-10T18:17:10.338Z,9.50
2022-10-10T18:19:39.089Z,10.48
2022-10-10T18:22:08.491Z,9.35
2022-10-10T18:24:37.318Z,10.58
2022-10-10T18:27:06.052Z,10.95
2022-10-10T18:29:34.887Z,11.53
2022-10-10T18:32:03.913Z,10.63
2022-10-10T18:34:33.196Z,10.75
2022-10-10T18:37:06.312Z,10.55
2022-10-10T18:39:36.047Z,11.43
2022-10-10T18:42:06.249Z,10.80
2022-10-10T18:44:35.128Z,11.53
2022-10-10T18:47:03.810Z,11.33
2022-10-10T18:49:32.943Z,12.23
2022-10-10T18:52:11.117Z,11.25
2022-10-10T20:29:01.626Z,10.68
2022-10-10T20:31:34.503Z,10.43
2022-10-10T20:34:04.869Z,10.55
2022-10-10T20:36:34.822Z,10.23
2022-10-10T20:39:06.477Z,10.20
2022-10-10T20:41:41.959Z,10.48
2022-10-10T20:44:09.686Z,10.85
2022-10-10T20:46:40.424Z,9.95
2022-10-10T20:49:18.252Z,10.68
2022-10-10T20:51:54.318Z,10.93
2022-10-10T20:54:25.569Z,9.63
2022-10-10T20:56:54.290Z,9.88
2022-10-10T20:59:24.649Z,10.10
2022-10-10T21:01:53.527Z,9.38
2022-10-10T21:04:58.825Z,9.53
2022-10-10T21:07:29.428Z,8.90
2022-10-10T21:09:59.371Z,10.23
2022-10-10T21:12:28.300Z,8.98
2022-10-10T21:14:58.506Z,8.93
2022-10-10T21:17:29.653Z,8.45
2022-10-10T21:20:05.130Z,8.85
2022-10-10T21:22:47.515Z,8.63
2022-10-10T21:25:18.634Z,8.78
2022-10-10T21:27:51.505Z,8.48
2022-10-10T21:30:22.054Z,9.08
2022-10-10T21:39:09.945Z,8.48
2022-10-10T21:41:40.687Z,9.40
2022-10-10T21:44:15.992Z,8.88
2022-10-10T21:46:57.961Z,8.60
2022-10-10T21:49:28.230Z,8.25
2022-10-10T21:51:56.952Z,8.40
2022-10-10T21:54:25.674Z,9.45
2022-10-10T21:56:54.262Z,9.53
2022-10-10T21:59:23.649Z,8.95
2022-10-10T22:01:52.374Z,9.38
2022-10-10T22:04:23.477Z,9.25
2022-10-10T22:06:51.351Z,9.30
2022-10-10T22:09:20.039Z,10.43
2022-10-10T22:11:48.673Z,8.65
2022-10-10T22:14:17.622Z,9.40
2022-10-10T22:16:48.420Z,8.95
2022-10-10T22:19:17.207Z,9.38
2022-10-10T22:21:45.914Z,9.73
2022-10-10T22:24:16.097Z,9.50
2022-10-10T22:26:45.189Z,9.48
2022-10-10T22:29:13.996Z,10.23
2022-10-10T22:31:42.686Z,10.00
2022-10-10T22:34:12.782Z,10.23
2022-10-10T22:36:41.961Z,10.40
2022-10-10T22:39:11.244Z,9.68
2022-10-10T22:41:39.882Z,10.95
2022-10-10T22:44:10.480Z,10.00
2022-10-10T22:46:39.178Z,10.28
2022-10-10T22:49:07.762Z,11.00
2022-10-10T22:51:36.358Z,10.75
2022-10-10T22:54:05.122Z,11.00
2022-10-10T22:56:33.919Z,10.35
2022-10-10T22:59:04.420Z,10.10
2022-10-10T23:01:32.983Z,10.80
2022-10-10T23:04:05.081Z,10.58
2022-10-10T23:06:33.657Z,11.00
2022-10-10T23:09:02.258Z,11.18
2022-10-10T23:11:31.000Z,10.95
2022-10-10T23:13:59.553Z,10.60
2022-10-10T23:16:28.181Z,10.08
2022-10-10T23:18:56.784Z,11.20
2022-10-10T23:21:25.526Z,10.80
2022-10-10T23:23:55.048Z,11.65
2022-10-10T23:26:23.657Z,12.15
2022-10-10T23:28:52.428Z,11.70
2022-10-10T23:31:21.420Z,10.98
2022-10-10T23:33:50.151Z,10.90
2022-10-10T23:36:18.768Z,11.20
2022-10-10T23:38:47.721Z,11.25
2022-10-10T23:41:16.405Z,10.82
2022-10-10T23:43:45.206Z,11.90
2022-10-10T23:46:16.386Z,11.80
2022-10-10T23:48:45.173Z,11.03
2022-10-10T23:51:13.913Z,11.35
2022-10-10T23:53:42.580Z,11.30
2022-10-10T23:56:11.315Z,11.15
2022-10-10T23:58:40.051Z,11.53
